createdAt,value
2019-04-22T13:10:56.888Z,29.70
2019-04-22T13:13:18.931Z,29.40
2019-04-22T13:15:48.827Z,29.00
2019-04-22T13:18:28.850Z,28.70
2019-04-22T13:20:48.471Z,28.50
2019-04-22T13:23:17.850Z,28.40
2019-04-22T13:25:47.149Z,28.30
2019-04-22T13:28:15.513Z,28.60
2019-04-22T13:30:44.359Z,28.50
2019-04-22T13:33:12.671Z,28.60
2019-04-22T13:35:41.591Z,28.00
2019-04-22T13:38:11.095Z,28.00
2019-04-22T13:40:59.280Z,27.90
2019-04-22T13:43:11.120Z,27.90
2019-04-22T13:45:40.766Z,27.20
2019-04-22T13:48:24.057Z,26.00
2019-04-22T13:53:44.721Z,24.80
2019-04-22T13:56:07.427Z,23.80
2019-04-22T13:58:19.511Z,22.80
2019-04-22T14:00:38.512Z,21.90
2019-04-22T14:03:30.777Z,21.50
2019-04-22T14:06:00.824Z,21.20
2019-04-22T14:08:29.229Z,21.00
2019-04-22T14:11:09.919Z,20.40
2019-04-22T14:13:27.927Z,20.20
2019-04-22T14:15:56.990Z,20.40
2019-04-22T14:18:25.221Z,20.40
2019-04-22T14:20:54.446Z,20.20
2019-04-22T14:23:22.631Z,20.10
2019-04-22T14:25:50.959Z,20.00
2019-04-22T14:28:21.177Z,19.80
2019-04-22T14:30:48.890Z,19.70
2019-04-22T14:33:16.408Z,19.70
2019-04-22T14:35:45.660Z,19.80
2019-04-22T14:38:14.192Z,20.00
2019-04-22T14:40:45.494Z,20.40
2019-04-22T14:43:46.163Z,20.30
2019-04-22T14:46:20.608Z,20.10
2019-04-22T14:48:41.940Z,20.10
2019-04-22T14:51:03.084Z,19.90
2019-04-22T14:53:30.813Z,20.00
2019-04-22T14:55:40.499Z,21.70
2019-04-22T14:58:09.045Z,22.80
2019-04-22T15:00:38.139Z,22.50
2019-04-22T15:03:08.065Z,23.80
2019-04-22T15:46:20.061Z,21.00
2019-04-22T15:48:48.478Z,21.20
2019-04-22T15:51:20.529Z,21.80
2019-04-22T15:53:51.931Z,21.90
2019-04-22T15:56:21.118Z,21.70
2019-04-22T15:58:51.505Z,22.20
2019-04-22T16:01:26.001Z,21.20
2019-04-22T16:03:52.453Z,20.80
2019-04-22T16:06:20.009Z,21.30
2019-04-22T16:08:47.884Z,22.00
2019-04-22T16:11:15.965Z,21.50
2019-04-22T16:13:44.250Z,20.80
2019-04-22T16:16:12.372Z,21.00
2019-04-22T16:18:42.206Z,21.10
2019-04-22T16:21:11.197Z,21.60
2019-04-22T16:23:46.494Z,21.50
2019-04-22T16:26:18.126Z,21.40
2019-04-22T16:28:47.399Z,21.10
2019-04-22T16:31:15.426Z,21.60
2019-04-22T16:33:45.644Z,22.00
2019-04-22T16:36:13.097Z,22.60
2019-04-22T16:38:44.937Z,22.50
2019-04-22T16:41:12.719Z,22.10
2019-04-22T16:43:40.772Z,21.30
2019-04-22T16:46:09.648Z,21.10
2019-04-22T16:48:40.008Z,21.00
2019-04-22T16:51:09.943Z,20.90
2019-04-22T16:53:38.892Z,20.40
2019-04-22T16:56:11.004Z,19.90
2019-04-22T16:58:38.841Z,19.40
2019-04-22T17:01:12.420Z,19.00
2019-04-22T17:04:18.771Z,18.00
2019-04-22T17:06:47.810Z,17.10
2019-04-22T17:09:17.652Z,16.30
2019-04-22T17:11:45.714Z,16.10
2019-04-22T17:14:19.034Z,15.70
2019-04-22T17:16:44.224Z,15.40
2019-04-22T17:19:13.148Z,15.20
2019-04-22T17:21:41.464Z,14.90
2019-04-22T17:24:09.805Z,14.80
2019-04-22T17:26:38.685Z,14.60
2019-04-22T17:29:06.535Z,14.40
2019-04-22T17:31:34.696Z,14.20
2019-04-22T17:34:02.613Z,14.10
2019-04-22T17:36:30.298Z,13.90
2019-04-22T17:39:14.598Z,13.80
2019-04-22T17:41:41.814Z,13.70
2019-04-22T17:44:28.100Z,13.60
2019-04-22T17:46:51.041Z,13.40
2019-04-22T17:49:37.282Z,13.20
2019-04-22T17:54:47.841Z,13.00
2019-04-22T17:57:21.197Z,12.80
2019-04-22T17:59:47.008Z,12.70
2019-04-22T18:02:11.163Z,12.60
2019-04-22T18:04:33.952Z,12.50
2019-04-22T18:07:24.453Z,12.30
2019-04-22T18:10:24.307Z,12.20
2019-04-22T18:12:20.629Z,12.00
2019-04-22T18:14:49.699Z,11.80
2019-04-22T18:17:19.432Z,11.70
2019-04-22T18:19:41.341Z,11.60
2019-04-22T18:22:03.738Z,11.50
2019-04-22T18:24:28.396Z,11.40
2019-04-22T18:27:29.105Z,11.30
2019-04-22T18:29:41.618Z,11.10
2019-04-22T18:31:58.199Z,11.00
2019-04-22T18:34:34.249Z,10.80
2019-04-22T18:37:03.959Z,10.70
2019-04-22T18:39:43.141Z,10.60
2019-04-22T18:42:03.624Z,10.50
2019-04-22T18:44:32.651Z,10.40
2019-04-22T18:47:01.271Z,10.30
2019-04-22T18:49:35.615Z,10.20
2019-04-22T18:52:21.349Z,10.10
2019-04-22T18:55:07.310Z,10.00
2019-04-22T18:57:45.117Z,9.90
2019-04-22T19:00:06.590Z,9.80
2019-04-22T19:02:37.093Z,9.70
2019-04-22T19:05:19.132Z,9.60
2019-04-22T19:08:01.294Z,9.50
2019-04-22T19:10:39.223Z,9.40
2019-04-22T19:13:15.624Z,9.40
2019-04-22T19:15:24.961Z,9.30
2019-04-22T19:18:01.868Z,9.30
2019-04-22T19:20:27.160Z,9.30
2019-04-22T19:22:55.386Z,9.20
2019-04-22T19:25:15.656Z,9.10
2019-04-22T19:27:46.238Z,9.10
2019-04-22T19:30:24.029Z,9.00
2019-04-22T19:32:50.816Z,9.00
2019-04-22T19:35:14.181Z,8.90
2019-04-22T19:37:42.471Z,8.90
2019-04-22T19:40:30.570Z,8.80
2019-04-22T19:42:54.747Z,8.70
2019-04-22T19:45:14.682Z,8.60
2019-04-22T19:47:53.114Z,8.50
2019-04-22T19:50:17.806Z,8.50
2019-04-22T19:52:44.599Z,8.50
2019-04-22T19:55:13.779Z,8.50
2019-04-22T19:57:41.931Z,8.40
2019-04-22T20:00:14.790Z,8.40
2019-04-22T20:03:11.461Z,8.30
2019-04-22T20:05:37.158Z,8.30
2019-04-22T20:08:12.729Z,8.20
2019-04-22T20:10:41.311Z,8.10
2019-04-22T20:13:10.103Z,8.00
2019-04-22T20:15:32.518Z,8.00
2019-04-22T20:18:22.184Z,7.90
2019-04-22T20:20:40.623Z,7.80
2019-04-22T20:23:02.149Z,7.80
2019-04-22T20:25:27.911Z,7.80
2019-04-22T20:28:07.474Z,7.80
2019-04-22T20:30:34.891Z,7.80
2019-04-22T20:32:59.259Z,7.60
2019-04-22T20:35:34.310Z,7.60
2019-04-22T20:38:04.297Z,7.50
2019-04-22T20:40:28.642Z,7.40
2019-04-22T20:43:22.132Z,7.30
2019-04-22T20:45:30.818Z,7.30
2019-04-22T20:47:51.264Z,7.20
2019-04-22T20:50:32.808Z,7.10
2019-04-22T20:53:07.342Z,7.00
2019-04-22T20:55:20.528Z,7.00
2019-04-22T20:57:59.436Z,7.00
2019-04-22T21:00:21.315Z,7.00
2019-04-22T21:02:46.941Z,6.90
2019-04-22T21:05:19.611Z,6.90
2019-04-22T21:08:01.529Z,6.90
2019-04-22T21:10:19.925Z,6.90
2019-04-22T21:12:43.722Z,6.80
2019-04-22T21:15:26.405Z,6.70
2019-04-22T21:17:53.556Z,6.70
2019-04-22T21:20:26.149Z,6.60
2019-04-22T21:22:51.146Z,6.60
2019-04-22T21:25:15.620Z,6.50
2019-04-22T21:27:51.036Z,6.50
2019-04-22T21:30:20.007Z,6.50
2019-04-22T21:33:04.007Z,6.40
